createdAt,value
2017-08-08T00:00:06.517Z,19
2017-08-08T00:02:07.245Z,19
2017-08-08T00:04:09.640Z,19
2017-08-08T00:06:07.358Z,19
2017-08-08T00:08:07.166Z,19
2017-08-08T00:10:09.364Z,19
2017-08-08T00:12:07.134Z,19
2017-08-08T00:14:06.831Z,19
2017-08-08T00:16:06.565Z,19
2017-08-08T00:18:09.121Z,19
2017-08-08T00:20:06.941Z,19
2017-08-08T00:22:06.690Z,19
2017-08-08T00:24:06.409Z,19
2017-08-08T00:26:07.149Z,19
2017-08-08T00:28:11.945Z,19
2017-08-08T00:30:11.720Z,19
2017-08-08T00:32:06.426Z,19
2017-08-08T00:34:19.795Z,19
2017-08-08T00:36:06.500Z,19
2017-08-08T00:38:12.250Z,19
2017-08-08T00:40:09.492Z,19
2017-08-08T00:42:07.216Z,19
2017-08-08T00:44:07.032Z,19
2017-08-08T00:46:09.273Z,19
2017-08-08T00:48:07.050Z,19
2017-08-08T00:50:06.697Z,19
2017-08-08T00:52:08.979Z,19
2017-08-08T00:54:06.709Z,19
2017-08-08T00:56:06.424Z,19
2017-08-08T00:58:07.149Z,19
2017-08-08T01:00:11.985Z,19
2017-08-08T01:02:24.609Z,19
2017-08-08T01:04:12.305Z,19
2017-08-08T01:06:07.023Z,19
2017-08-08T01:08:09.270Z,19
2017-08-08T01:10:07.065Z,19
2017-08-08T01:12:06.832Z,19
2017-08-08T01:14:06.504Z,19
2017-08-08T01:16:14.797Z,19
2017-08-08T01:18:11.761Z,19
2017-08-08T01:20:11.504Z,19
2017-08-08T01:22:07.181Z,19
2017-08-08T01:24:09.463Z,19
2017-08-08T01:26:09.678Z,19
2017-08-08T01:28:07.445Z,19
2017-08-08T01:30:07.205Z,19
2017-08-08T01:32:09.645Z,19
2017-08-08T01:34:07.367Z,19
2017-08-08T01:36:09.601Z,19
2017-08-08T01:38:17.433Z,19
2017-08-08T01:40:07.195Z,19
2017-08-08T01:42:09.601Z,19
2017-08-08T01:44:17.394Z,19
2017-08-08T01:46:07.133Z,19
2017-08-08T01:48:09.484Z,19
2017-08-08T01:50:07.194Z,19
2017-08-08T01:52:06.890Z,19
2017-08-08T01:54:09.229Z,19
2017-08-08T01:56:06.944Z,19
2017-08-08T01:58:06.794Z,19
2017-08-08T02:00:09.034Z,19
2017-08-08T02:02:06.809Z,19
2017-08-08T02:04:06.532Z,19
2017-08-08T02:06:07.208Z,19
2017-08-08T02:08:09.590Z,19
2017-08-08T02:10:07.351Z,19
2017-08-08T02:12:12.100Z,19
2017-08-08T02:14:09.290Z,19
2017-08-08T02:16:07.018Z,19
2017-08-08T02:18:12.024Z,19
2017-08-08T02:20:09.226Z,19
2017-08-08T02:22:09.552Z,19
2017-08-08T02:24:12.330Z,19
2017-08-08T02:26:09.613Z,19
2017-08-08T02:28:07.311Z,19
2017-08-08T02:30:07.018Z,19
2017-08-08T02:32:14.383Z,19
2017-08-08T02:34:07.104Z,19
2017-08-08T02:36:06.922Z,19
2017-08-08T02:38:06.636Z,19
2017-08-08T02:40:14.929Z,19
2017-08-08T02:42:06.842Z,19
2017-08-08T02:44:06.594Z,19
2017-08-08T02:46:07.410Z,19
2017-08-08T02:48:07.274Z,19
2017-08-08T02:50:09.521Z,19
2017-08-08T02:52:07.252Z,19
2017-08-08T02:54:07.016Z,19
2017-08-08T02:56:06.759Z,19
2017-08-08T02:58:09.055Z,19
2017-08-08T03:00:06.878Z,19
2017-08-08T03:02:06.598Z,19
2017-08-08T03:04:07.246Z,19
2017-08-08T03:06:09.557Z,19
2017-08-08T03:08:07.376Z,19
2017-08-08T03:10:07.084Z,19
2017-08-08T03:12:06.779Z,19
2017-08-08T03:14:09.000Z,19
2017-08-08T03:16:06.668Z,19
2017-08-08T03:18:06.567Z,19
2017-08-08T03:20:07.244Z,19
2017-08-08T03:22:07.076Z,19
2017-08-08T03:24:11.986Z,19
2017-08-08T03:26:06.714Z,19
2017-08-08T03:28:06.410Z,19
2017-08-08T03:30:09.686Z,19
2017-08-08T03:32:06.323Z,19
2017-08-08T03:34:12.126Z,19
2017-08-08T03:36:09.352Z,19
2017-08-08T03:38:07.047Z,19
2017-08-08T03:40:09.351Z,19
2017-08-08T03:42:09.590Z,19
2017-08-08T03:44:14.884Z,19
2017-08-08T03:46:06.644Z,19
2017-08-08T03:48:14.907Z,19
2017-08-08T03:50:09.175Z,19
2017-08-08T03:52:06.916Z,19
2017-08-08T03:54:06.672Z,19
2017-08-08T03:56:09.995Z,19
2017-08-08T03:58:06.678Z,19
2017-08-08T04:00:07.418Z,19
2017-08-08T04:02:07.233Z,19
2017-08-08T04:04:09.526Z,19
2017-08-08T04:06:07.302Z,19
2017-08-08T04:08:07.022Z,19
2017-08-08T04:10:06.782Z,19
2017-08-08T04:12:06.533Z,19
2017-08-08T04:14:17.373Z,19
2017-08-08T04:16:07.096Z,19
2017-08-08T04:18:09.512Z,19
2017-08-08T04:20:17.378Z,19
2017-08-08T04:22:12.145Z,19
2017-08-08T04:24:06.921Z,19
2017-08-08T04:26:11.650Z,19
2017-08-08T04:28:07.382Z,19
2017-08-08T04:30:14.721Z,19
2017-08-08T04:32:06.484Z,19
2017-08-08T04:34:07.212Z,19
2017-08-08T04:36:09.454Z,19
2017-08-08T04:38:09.705Z,19
2017-08-08T04:40:13.971Z,19
2017-08-08T04:42:09.229Z,19
2017-08-08T04:44:12.041Z,19
2017-08-08T04:46:11.787Z,19
2017-08-08T04:48:06.475Z,19
2017-08-08T04:50:11.275Z,19
2017-08-08T04:52:09.805Z,19
2017-08-08T04:54:09.334Z,19
2017-08-08T04:56:09.564Z,19
2017-08-08T04:58:07.377Z,19
2017-08-08T05:00:09.811Z,19
2017-08-08T05:02:09.125Z,19
2017-08-08T05:04:11.876Z,19
2017-08-08T05:06:06.909Z,19
2017-08-08T05:08:14.218Z,19
2017-08-08T05:10:09.443Z,19
2017-08-08T05:12:12.437Z,19
2017-08-08T05:14:07.217Z,19
2017-08-08T05:16:06.982Z,19
2017-08-08T05:18:12.130Z,19
2017-08-08T05:20:06.878Z,19
2017-08-08T05:22:09.135Z,19
2017-08-08T05:24:09.403Z,19
2017-08-08T05:26:09.715Z,19
2017-08-08T05:28:06.834Z,19
2017-08-08T05:30:06.808Z,19
2017-08-08T05:32:06.739Z,19
2017-08-08T05:34:06.478Z,19
2017-08-08T05:36:07.286Z,19
2017-08-08T05:38:09.605Z,19
2017-08-08T05:40:07.648Z,19
2017-08-08T05:42:10.507Z,19
2017-08-08T05:44:08.980Z,19
2017-08-08T05:46:09.206Z,19
2017-08-08T05:48:09.497Z,19
2017-08-08T05:50:07.244Z,19
2017-08-08T05:52:09.555Z,19
2017-08-08T05:54:07.393Z,19
2017-08-08T05:56:07.134Z,19
2017-08-08T05:58:11.963Z,19
2017-08-08T06:00:06.679Z,19
2017-08-08T06:02:07.420Z,19
2017-08-08T06:04:07.147Z,19
2017-08-08T06:06:06.841Z,19
2017-08-08T06:08:06.497Z,19
2017-08-08T06:10:07.295Z,19
2017-08-08T06:12:09.821Z,19
2017-08-08T06:14:06.501Z,19
2017-08-08T06:16:09.787Z,19
2017-08-08T06:18:09.328Z,19
2017-08-08T06:20:17.334Z,19
2017-08-08T06:22:07.023Z,19
2017-08-08T06:24:06.974Z,19
2017-08-08T06:26:09.534Z,19
2017-08-08T06:28:07.400Z,19
2017-08-08T06:30:12.263Z,19
2017-08-08T06:32:06.964Z,19
2017-08-08T06:34:19.370Z,19
2017-08-08T06:36:09.985Z,19
2017-08-08T06:38:09.231Z,19
2017-08-08T06:40:09.475Z,19
2017-08-08T06:42:07.441Z,19
2017-08-08T06:44:07.104Z,19
2017-08-08T06:46:06.814Z,19
2017-08-08T06:48:09.254Z,19
2017-08-08T06:50:12.059Z,19
2017-08-08T06:52:06.908Z,19
2017-08-08T06:54:06.765Z,19
2017-08-08T06:56:06.507Z,19
2017-08-08T06:58:17.357Z,19
2017-08-08T07:00:07.251Z,19
2017-08-08T07:02:19.621Z,19
2017-08-08T07:04:12.458Z,19
2017-08-08T07:06:09.885Z,19
2017-08-08T07:08:06.749Z,19
2017-08-08T07:10:06.529Z,19
2017-08-08T07:12:07.407Z,19
2017-08-08T07:14:07.673Z,19
2017-08-08T07:16:07.379Z,19
2017-08-08T07:18:09.889Z,19
2017-08-08T07:20:06.617Z,19
2017-08-08T07:22:08.060Z,19
2017-08-08T07:24:09.526Z,19
2017-08-08T07:26:09.771Z,19
2017-08-08T07:28:09.038Z,19
2017-08-08T07:30:07.101Z,19
2017-08-08T07:32:16.923Z,19
2017-08-08T07:34:11.687Z,19
2017-08-08T07:36:12.635Z,19
2017-08-08T07:38:12.430Z,19
2017-08-08T07:40:07.189Z,19
2017-08-08T07:42:09.539Z,19
2017-08-08T07:44:09.814Z,19
2017-08-08T07:46:06.545Z,19
2017-08-08T07:48:15.164Z,19
2017-08-08T07:50:06.920Z,19
2017-08-08T07:52:09.170Z,19
2017-08-08T07:54:09.468Z,19
2017-08-08T07:56:08.858Z,19
2017-08-08T07:58:09.088Z,19
2017-08-08T08:00:14.616Z,19
2017-08-08T08:02:14.928Z,19
2017-08-08T08:04:09.268Z,19
2017-08-08T08:06:07.144Z,19
2017-08-08T08:08:06.827Z,19
2017-08-08T08:10:09.072Z,19
2017-08-08T08:12:09.680Z,19
2017-08-08T08:14:09.916Z,19
2017-08-08T08:16:09.171Z,19
2017-08-08T08:18:14.992Z,19
2017-08-08T08:20:06.676Z,19
2017-08-08T08:22:07.545Z,19
2017-08-08T08:24:07.608Z,19
2017-08-08T08:26:07.281Z,19
2017-08-08T08:28:12.214Z,19
2017-08-08T08:30:07.007Z,19
2017-08-08T08:32:11.780Z,19
2017-08-08T08:34:09.019Z,19
2017-08-08T08:36:09.413Z,19
2017-08-08T08:38:07.117Z,19
2017-08-08T08:40:11.846Z,19
2017-08-08T08:42:09.229Z,19
2017-08-08T08:44:07.000Z,19
2017-08-08T08:46:06.693Z,19
2017-08-08T08:48:11.448Z,19
2017-08-08T08:50:07.156Z,19
2017-08-08T08:52:11.939Z,19
2017-08-08T08:54:06.862Z,19
2017-08-08T08:56:06.513Z,19
2017-08-08T08:58:07.235Z,19
2017-08-08T09:00:07.170Z,19
2017-08-08T09:02:09.445Z,19
2017-08-08T09:04:07.134Z,19
2017-08-08T09:06:12.235Z,19
2017-08-08T09:08:06.931Z,19
2017-08-08T09:10:09.158Z,19
2017-08-08T09:12:07.205Z,19
2017-08-08T09:14:06.924Z,19
2017-08-08T09:16:09.319Z,19
2017-08-08T09:18:27.516Z,19
2017-08-08T09:20:07.194Z,19
2017-08-08T09:22:06.889Z,19
2017-08-08T09:24:09.131Z,19
2017-08-08T09:26:06.806Z,19
2017-08-08T09:28:06.512Z,19
2017-08-08T09:30:07.332Z,19
2017-08-08T09:32:14.600Z,19
2017-08-08T09:34:12.388Z,19
2017-08-08T09:36:07.296Z,19
2017-08-08T09:38:07.055Z,19
2017-08-08T09:40:06.802Z,19
2017-08-08T09:42:14.163Z,19
2017-08-08T09:44:09.439Z,19
2017-08-08T09:46:07.219Z,19
2017-08-08T09:48:07.112Z,19
2017-08-08T09:50:06.773Z,19
2017-08-08T09:52:08.995Z,19
2017-08-08T09:54:19.493Z,19
2017-08-08T09:56:07.187Z,19
2017-08-08T09:58:07.137Z,19
2017-08-08T10:00:07.001Z,19
2017-08-08T10:02:06.705Z,19
2017-08-08T10:04:19.025Z,19
2017-08-08T10:06:06.853Z,19
2017-08-08T10:08:06.558Z,19
2017-08-08T10:10:07.264Z,19
2017-08-08T10:12:12.234Z,19
2017-08-08T10:14:14.507Z,19
2017-08-08T10:16:09.719Z,19
2017-08-08T10:18:11.730Z,19
2017-08-08T10:20:06.514Z,19
2017-08-08T10:22:07.237Z,19
2017-08-08T10:24:07.021Z,19
2017-08-08T10:26:06.682Z,19
2017-08-08T10:28:07.335Z,19
2017-08-08T10:30:07.143Z,19
2017-08-08T10:32:06.936Z,19
2017-08-08T10:34:06.685Z,19
2017-08-08T10:36:06.755Z,19
2017-08-08T10:38:06.442Z,19
2017-08-08T10:40:07.114Z,19
2017-08-08T10:42:12.029Z,19
2017-08-08T10:44:11.847Z,19
2017-08-08T10:46:06.536Z,19
2017-08-08T10:48:09.885Z,19
2017-08-08T10:50:06.619Z,19
2017-08-08T10:52:12.540Z,19
2017-08-08T10:54:07.580Z,19
2017-08-08T10:56:09.818Z,19
2017-08-08T10:58:09.060Z,19
2017-08-08T11:00:07.078Z,19
2017-08-08T11:02:11.898Z,19
2017-08-08T11:04:06.602Z,19
2017-08-08T11:06:07.334Z,19
2017-08-08T11:08:07.210Z,19
2017-08-08T11:10:06.940Z,19
2017-08-08T11:12:06.884Z,19
2017-08-08T11:14:06.548Z,19
2017-08-08T11:16:07.278Z,19
2017-08-08T11:18:09.738Z,19
2017-08-08T11:20:06.443Z,19
2017-08-08T11:22:07.171Z,19
2017-08-08T11:24:09.577Z,19
2017-08-08T11:26:07.283Z,19
2017-08-08T11:28:12.055Z,19
2017-08-08T11:30:11.920Z,19
2017-08-08T11:32:09.225Z,19
2017-08-08T11:34:19.668Z,19
2017-08-08T11:36:10.001Z,19
2017-08-08T11:38:09.177Z,19
2017-08-08T11:40:14.469Z,19
2017-08-08T11:42:07.324Z,19
2017-08-08T11:44:07.105Z,19
2017-08-08T11:46:06.863Z,19
2017-08-08T11:48:11.676Z,19
2017-08-08T11:50:07.391Z,19
2017-08-08T11:52:07.050Z,19
2017-08-08T11:54:06.777Z,19
2017-08-08T11:56:09.184Z,19
2017-08-08T11:58:11.983Z,19
2017-08-08T12:00:09.557Z,19
2017-08-08T12:02:12.474Z,19
2017-08-08T12:04:09.728Z,19
2017-08-08T12:06:12.787Z,19
2017-08-08T12:08:06.484Z,19
2017-08-08T12:10:07.200Z,19
2017-08-08T12:12:09.744Z,19
2017-08-08T12:14:08.978Z,19
2017-08-08T12:16:09.218Z,19
2017-08-08T12:18:07.323Z,19
2017-08-08T12:20:07.008Z,19
2017-08-08T12:22:09.337Z,19
2017-08-08T12:24:07.187Z,19
2017-08-08T12:26:06.869Z,19
2017-08-08T12:28:11.794Z,19
2017-08-08T12:30:06.657Z,19
2017-08-08T12:32:12.383Z,19
2017-08-08T12:34:14.752Z,19
2017-08-08T12:36:06.672Z,19
2017-08-08T12:38:07.394Z,19
2017-08-08T12:40:09.681Z,19
2017-08-08T12:42:10.077Z,19
2017-08-08T12:44:06.855Z,19
2017-08-08T12:46:11.654Z,19
2017-08-08T12:48:07.619Z,19
2017-08-08T12:50:09.836Z,19
2017-08-08T12:52:06.545Z,19
2017-08-08T12:54:07.275Z,19
2017-08-08T12:56:09.516Z,19
2017-08-08T12:58:07.272Z,19
2017-08-08T13:00:07.252Z,19
2017-08-08T13:02:12.018Z,19
2017-08-08T13:04:09.237Z,19
2017-08-08T13:06:07.058Z,19
2017-08-08T13:08:20.388Z,19
2017-08-08T13:10:14.720Z,19
2017-08-08T13:12:14.023Z,19
2017-08-08T13:14:06.798Z,19
2017-08-08T13:16:06.542Z,19
2017-08-08T13:18:06.575Z,19
2017-08-08T13:20:07.317Z,19
2017-08-08T13:22:07.496Z,19
2017-08-08T13:24:12.398Z,19
2017-08-08T13:26:07.175Z,19
2017-08-08T13:28:11.991Z,19
2017-08-08T13:30:19.618Z,19
2017-08-08T13:32:07.486Z,19
2017-08-08T13:34:07.252Z,19
2017-08-08T13:36:07.113Z,19
2017-08-08T13:38:19.424Z,19
2017-08-08T13:40:07.160Z,19
2017-08-08T13:42:06.883Z,19
2017-08-08T13:44:11.635Z,19
2017-08-08T13:46:07.365Z,19
2017-08-08T13:48:09.676Z,19
2017-08-08T13:50:07.412Z,19
2017-08-08T13:52:07.149Z,19
2017-08-08T13:54:09.655Z,19
2017-08-08T13:56:07.334Z,19
2017-08-08T13:58:07.041Z,19
2017-08-08T14:00:07.089Z,19
2017-08-08T14:02:06.751Z,19
2017-08-08T14:04:11.863Z,19
2017-08-08T14:06:06.775Z,19
2017-08-08T14:08:06.506Z,19
2017-08-08T14:10:12.341Z,19
2017-08-08T14:12:09.679Z,19
2017-08-08T14:14:07.348Z,19
2017-08-08T14:16:07.016Z,19
2017-08-08T14:18:07.244Z,19
2017-08-08T14:20:07.096Z,19
2017-08-08T14:22:11.879Z,19
2017-08-08T14:24:06.621Z,19
2017-08-08T14:26:09.883Z,20
2017-08-08T14:28:09.121Z,20
2017-08-08T14:30:09.528Z,20
2017-08-08T14:32:09.755Z,20
2017-08-08T14:34:11.583Z,19
2017-08-08T14:36:07.537Z,20
2017-08-08T14:38:07.266Z,21
2017-08-08T14:40:07.002Z,21
2017-08-08T14:42:09.324Z,21
2017-08-08T14:44:07.041Z,22
2017-08-08T14:46:06.776Z,22
2017-08-08T14:48:06.626Z,22
2017-08-08T14:50:09.856Z,22
2017-08-08T14:52:06.557Z,25
2017-08-08T14:54:12.726Z,25
2017-08-08T14:56:09.039Z,25
2017-08-08T14:58:06.694Z,25
2017-08-08T15:00:06.386Z,28
2017-08-08T15:02:09.617Z,26
2017-08-08T15:04:07.403Z,26
2017-08-08T15:06:07.231Z,28
2017-08-08T15:08:12.062Z,26
2017-08-08T15:10:11.839Z,26
2017-08-08T15:12:06.785Z,26
2017-08-08T15:14:09.007Z,28
2017-08-08T15:16:09.280Z,26
2017-08-08T15:18:07.416Z,28
2017-08-08T15:20:09.665Z,28
2017-08-08T15:22:07.379Z,28
2017-08-08T15:24:07.260Z,26
2017-08-08T15:26:06.989Z,28
2017-08-08T15:28:09.293Z,28
2017-08-08T15:30:07.032Z,28
2017-08-08T15:32:12.404Z,29
2017-08-08T15:34:22.262Z,29
2017-08-08T15:36:07.392Z,30
2017-08-08T15:38:07.066Z,30
2017-08-08T15:40:17.203Z,28
2017-08-08T15:42:07.244Z,28
2017-08-08T15:44:06.949Z,30
2017-08-08T15:46:06.752Z,29
2017-08-08T15:48:06.851Z,26
2017-08-08T15:50:06.605Z,26
2017-08-08T15:52:09.839Z,28
2017-08-08T15:54:07.266Z,26
2017-08-08T15:56:08.728Z,26
2017-08-08T15:58:06.592Z,26
2017-08-08T16:00:07.349Z,26
2017-08-08T16:02:07.009Z,25
2017-08-08T16:04:06.735Z,25
2017-08-08T16:06:06.480Z,24
2017-08-08T16:08:07.396Z,25
2017-08-08T16:10:07.349Z,22
2017-08-08T16:12:07.311Z,25
2017-08-08T16:14:07.067Z,24
2017-08-08T16:16:06.831Z,23
2017-08-08T16:18:06.783Z,23
2017-08-08T16:20:09.036Z,22
2017-08-08T16:22:06.785Z,22
2017-08-08T16:24:06.636Z,22
2017-08-08T16:26:13.078Z,20
2017-08-08T16:28:09.841Z,19
2017-08-08T16:30:07.014Z,19
2017-08-08T16:32:14.562Z,20
2017-08-08T16:34:07.460Z,19
2017-08-08T16:36:07.328Z,19
2017-08-08T16:38:09.567Z,19
2017-08-08T16:40:07.269Z,19
2017-08-08T16:42:07.188Z,19
2017-08-08T16:44:09.971Z,19
2017-08-08T16:46:06.959Z,19
2017-08-08T16:48:06.804Z,19
2017-08-08T16:50:06.562Z,19
2017-08-08T16:52:07.332Z,19
2017-08-08T16:54:07.369Z,19
2017-08-08T16:56:09.572Z,19
2017-08-08T16:58:07.352Z,19
2017-08-08T17:00:07.367Z,19
2017-08-08T17:02:09.643Z,19
2017-08-08T17:04:12.385Z,19
2017-08-08T17:06:12.295Z,19
2017-08-08T17:08:07.034Z,19
2017-08-08T17:10:06.793Z,19
2017-08-08T17:12:09.116Z,19
2017-08-08T17:14:06.820Z,19
2017-08-08T17:16:09.057Z,19
2017-08-08T17:18:14.573Z,19
2017-08-08T17:20:09.840Z,19
2017-08-08T17:22:07.068Z,19
2017-08-08T17:24:07.043Z,19
2017-08-08T17:26:06.745Z,19
2017-08-08T17:28:09.254Z,19
2017-08-08T17:30:07.050Z,19
2017-08-08T17:32:16.951Z,19
2017-08-08T17:34:06.767Z,19
2017-08-08T17:36:06.664Z,19
2017-08-08T17:38:10.443Z,19
2017-08-08T17:40:07.214Z,19
2017-08-08T17:42:07.172Z,19
2017-08-08T17:44:07.016Z,19
2017-08-08T17:46:07.079Z,19
2017-08-08T17:48:12.008Z,19
2017-08-08T17:50:07.170Z,19
2017-08-08T17:52:09.954Z,19
2017-08-08T17:54:07.815Z,19
2017-08-08T17:56:06.515Z,19
2017-08-08T17:58:07.222Z,19
2017-08-08T18:00:07.089Z,19
2017-08-08T18:02:06.929Z,19
2017-08-08T18:04:06.826Z,19
2017-08-08T18:06:07.568Z,19
2017-08-08T18:08:14.872Z,19
2017-08-08T18:10:11.680Z,19
2017-08-08T18:12:07.513Z,19
2017-08-08T18:14:07.492Z,19
2017-08-08T18:16:19.870Z,19
2017-08-08T18:18:06.930Z,19
2017-08-08T18:20:12.236Z,19
2017-08-08T18:22:07.135Z,19
2017-08-08T18:24:06.983Z,19
2017-08-08T18:26:06.697Z,19
2017-08-08T18:28:06.428Z,19
2017-08-08T18:30:07.329Z,19
2017-08-08T18:32:09.913Z,19
2017-08-08T18:34:06.648Z,19
2017-08-08T18:36:10.076Z,19
2017-08-08T18:38:14.361Z,19
2017-08-08T18:40:07.022Z,19
2017-08-08T18:42:06.905Z,19
2017-08-08T18:44:14.226Z,19
2017-08-08T18:46:14.505Z,19
2017-08-08T18:48:07.265Z,19
2017-08-08T18:50:07.005Z,19
2017-08-08T18:52:07.000Z,19
2017-08-08T18:54:06.752Z,19
2017-08-08T18:56:07.502Z,19
2017-08-08T18:58:07.469Z,19
2017-08-08T19:00:10.304Z,19
2017-08-08T19:02:12.062Z,19
2017-08-08T19:04:06.783Z,19
2017-08-08T19:06:07.798Z,19
2017-08-08T19:08:10.200Z,19
2017-08-08T19:10:06.895Z,19
2017-08-08T19:12:11.796Z,19
2017-08-08T19:14:06.786Z,19
2017-08-08T19:16:06.739Z,19
2017-08-08T19:18:06.930Z,19
2017-08-08T19:20:17.198Z,19
2017-08-08T19:22:06.927Z,19
2017-08-08T19:24:11.903Z,19
2017-08-08T19:26:06.687Z,19
2017-08-08T19:28:11.445Z,19
2017-08-08T19:30:07.215Z,19
2017-08-08T19:32:11.996Z,19
2017-08-08T19:34:06.742Z,19
2017-08-08T19:36:09.169Z,19
2017-08-08T19:38:08.201Z,19
2017-08-08T19:40:07.241Z,19
2017-08-08T19:42:09.652Z,19
2017-08-08T19:44:07.363Z,19
2017-08-08T19:46:09.938Z,19
2017-08-08T19:48:07.012Z,19
2017-08-08T19:50:06.725Z,19
2017-08-08T19:52:11.719Z,19
2017-08-08T19:54:07.963Z,19
2017-08-08T19:56:07.091Z,19
2017-08-08T19:58:09.566Z,19
2017-08-08T20:00:17.513Z,19
2017-08-08T20:02:07.663Z,19
2017-08-08T20:04:14.944Z,19
2017-08-08T20:06:07.645Z,19
2017-08-08T20:08:10.164Z,19
2017-08-08T20:10:06.997Z,19
2017-08-08T20:12:11.949Z,19
2017-08-08T20:14:07.053Z,19
2017-08-08T20:16:14.095Z,19
2017-08-08T20:18:07.843Z,19
2017-08-08T20:20:09.969Z,19
2017-08-08T20:22:06.747Z,19
2017-08-08T20:24:10.289Z,19
2017-08-08T20:26:07.026Z,19
2017-08-08T20:28:06.735Z,19
2017-08-08T20:30:07.294Z,19
2017-08-08T20:32:13.287Z,19
2017-08-08T20:34:07.406Z,19
2017-08-08T20:36:12.399Z,19
2017-08-08T20:38:07.087Z,19
2017-08-08T20:40:11.931Z,19
2017-08-08T20:42:09.464Z,19
2017-08-08T20:44:07.257Z,19
2017-08-08T20:46:12.121Z,19
2017-08-08T20:48:12.001Z,19
2017-08-08T20:50:06.751Z,19
2017-08-08T20:52:06.532Z,19
2017-08-08T20:54:07.354Z,19
2017-08-08T20:56:12.089Z,19
2017-08-08T20:58:07.995Z,19
2017-08-08T21:00:06.951Z,19
2017-08-08T21:02:06.765Z,19
2017-08-08T21:04:06.514Z,19
2017-08-08T21:06:12.495Z,19
2017-08-08T21:08:07.234Z,19
2017-08-08T21:10:12.273Z,19
2017-08-08T21:12:07.058Z,19
2017-08-08T21:14:06.803Z,19
2017-08-08T21:16:09.361Z,19
2017-08-08T21:18:07.424Z,19
2017-08-08T21:20:08.639Z,19
2017-08-08T21:22:07.340Z,19
2017-08-08T21:24:10.179Z,19
2017-08-08T21:26:11.951Z,19
2017-08-08T21:28:11.697Z,19
2017-08-08T21:30:14.055Z,19
2017-08-08T21:32:14.735Z,19
2017-08-08T21:34:06.425Z,19
2017-08-08T21:36:12.397Z,19
2017-08-08T21:38:09.876Z,19
2017-08-08T21:40:09.128Z,19
2017-08-08T21:42:08.228Z,19
2017-08-08T21:44:07.000Z,19
2017-08-08T21:46:06.690Z,19
2017-08-08T21:48:09.138Z,19
2017-08-08T21:50:07.094Z,19
2017-08-08T21:52:06.809Z,19
2017-08-08T21:54:09.043Z,19
2017-08-08T21:56:06.810Z,19
2017-08-08T21:58:06.715Z,19
2017-08-08T22:00:14.000Z,19
2017-08-08T22:02:06.735Z,19
2017-08-08T22:04:11.727Z,19
2017-08-08T22:06:06.580Z,19
2017-08-08T22:08:09.956Z,19
2017-08-08T22:10:11.713Z,19
2017-08-08T22:12:06.590Z,19
2017-08-08T22:14:07.315Z,19
2017-08-08T22:16:14.716Z,19
2017-08-08T22:18:06.749Z,19
2017-08-08T22:20:06.447Z,19
2017-08-08T22:22:09.706Z,19
2017-08-08T22:24:06.748Z,19
2017-08-08T22:26:06.446Z,19
2017-08-08T22:28:07.255Z,19
2017-08-08T22:30:07.272Z,19
2017-08-08T22:32:06.983Z,19
2017-08-08T22:34:09.313Z,19
2017-08-08T22:36:12.404Z,19
2017-08-08T22:38:07.113Z,19
2017-08-08T22:40:06.842Z,19
2017-08-08T22:42:06.826Z,19
2017-08-08T22:44:06.525Z,19
2017-08-08T22:46:07.266Z,19
2017-08-08T22:48:13.189Z,19
2017-08-08T22:50:16.967Z,19
2017-08-08T22:52:13.149Z,19
2017-08-08T22:54:07.046Z,19
2017-08-08T22:56:09.557Z,19
2017-08-08T22:58:07.285Z,19
2017-08-08T23:00:07.367Z,19
2017-08-08T23:02:12.127Z,19
2017-08-08T23:04:16.972Z,19
2017-08-08T23:06:09.370Z,19
2017-08-08T23:08:09.932Z,19
2017-08-08T23:10:06.633Z,19
2017-08-08T23:12:07.331Z,19
2017-08-08T23:14:07.231Z,19
2017-08-08T23:16:07.018Z,19
2017-08-08T23:18:09.691Z,19
2017-08-08T23:20:11.416Z,19
2017-08-08T23:22:07.109Z,19
2017-08-08T23:24:07.653Z,19
2017-08-08T23:26:07.328Z,19
2017-08-08T23:28:07.054Z,19
2017-08-08T23:30:07.969Z,19
2017-08-08T23:32:06.726Z,19
2017-08-08T23:34:06.412Z,19
2017-08-08T23:36:09.835Z,19
2017-08-08T23:38:09.063Z,19
2017-08-08T23:40:06.902Z,19
2017-08-08T23:42:06.851Z,19
2017-08-08T23:44:11.752Z,19
2017-08-08T23:46:17.044Z,19
2017-08-08T23:48:06.867Z,19
2017-08-08T23:50:11.640Z,19
2017-08-08T23:52:07.367Z,19
2017-08-08T23:54:07.225Z,19
2017-08-08T23:56:09.704Z,19
2017-08-08T23:58:06.567Z,19
